sensor_id;sensor_type;location;lat;lon;timestamp;pressure;altitude;pressure_sealevel;temperature;humidity
28628;BME280;15815;46.760;19.604;2023-03-08T00:00:21;98984.47;;;7.33;100.00
28628;BME280;15815;46.760;19.604;2023-03-08T00:02:47;98999.94;;;7.45;100.00
28628;BME280;15815;46.760;19.604;2023-03-08T00:05:12;98975.75;;;7.28;100.00
28628;BME280;15815;46.760;19.604;2023-03-08T00:07:41;98991.19;;;7.39;100.00
28628;BME280;15815;46.760;19.604;2023-03-08T00:10:10;98984.78;;;7.39;100.00
28628;BME280;15815;46.760;19.604;2023-03-08T00:12:35;98975.28;;;7.33;100.00
28628;BME280;15815;46.760;19.604;2023-03-08T00:15:01;98985.56;;;7.43;100.00
28628;BME280;15815;46.760;19.604;2023-03-08T00:17:29;98979.63;;;7.41;100.00
28628;BME280;15815;46.760;19.604;2023-03-08T00:19:54;98966.53;;;7.31;100.00
28628;BME280;15815;46.760;19.604;2023-03-08T00:22:20;98986.31;;;7.47;100.00
28628;BME280;15815;46.760;19.604;2023-03-08T00:24:45;98996.59;;;7.57;100.00
28628;BME280;15815;46.760;19.604;2023-03-08T00:27:14;98985.50;;;7.50;100.00
28628;BME280;15815;46.760;19.604;2023-03-08T00:29:40;98988.19;;;7.57;99.81
28628;BME280;15815;46.760;19.604;2023-03-08T00:32:05;98975.53;;;7.49;99.50
28628;BME280;15815;46.760;19.604;2023-03-08T00:34:31;98969.94;;;7.49;99.08
28628;BME280;15815;46.760;19.604;2023-03-08T00:36:57;98964.72;;;7.51;98.22
28628;BME280;15815;46.760;19.604;2023-03-08T00:39:22;98975.44;;;7.56;97.88
28628;BME280;15815;46.760;19.604;2023-03-08T00:41:48;98977.47;;;7.52;97.26
28628;BME280;15815;46.760;19.604;2023-03-08T00:44:13;98996.50;;;7.64;97.51
28628;BME280;15815;46.760;19.604;2023-03-08T00:46:39;98965.56;;;7.48;96.96
28628;BME280;15815;46.760;19.604;2023-03-08T00:49:14;98967.13;;;7.49;95.23
28628;BME280;15815;46.760;19.604;2023-03-08T00:51:39;98960.41;;;7.43;94.89
28628;BME280;15815;46.760;19.604;2023-03-08T00:54:05;98955.31;;;7.34;94.64
28628;BME280;15815;46.760;19.604;2023-03-08T00:56:30;98964.91;;;7.33;93.73
28628;BME280;15815;46.760;19.604;2023-03-08T00:58:56;98980.81;;;7.40;93.66
28628;BME280;15815;46.760;19.604;2023-03-08T01:01:23;98974.44;;;7.36;93.36
28628;BME280;15815;46.760;19.604;2023-03-08T01:03:48;98945.09;;;7.21;92.61
28628;BME280;15815;46.760;19.604;2023-03-08T01:06:14;98975.31;;;7.29;92.56
28628;BME280;15815;46.760;19.604;2023-03-08T01:08:42;98980.91;;;7.29;92.43
28628;BME280;15815;46.760;19.604;2023-03-08T01:11:18;98958.72;;;7.15;92.21
28628;BME280;15815;46.760;19.604;2023-03-08T01:13:44;98950.38;;;7.08;91.88
28628;BME280;15815;46.760;19.604;2023-03-08T01:16:36;98951.22;;;7.05;91.84
28628;BME280;15815;46.760;19.604;2023-03-08T01:19:03;98981.88;;;7.16;91.83
28628;BME280;15815;46.760;19.604;2023-03-08T01:21:30;98968.00;;;7.01;91.77
28628;BME280;15815;46.760;19.604;2023-03-08T01:23:58;98979.94;;;7.05;91.76
28628;BME280;15815;46.760;19.604;2023-03-08T01:26:27;98979.56;;;7.03;92.12
28628;BME280;15815;46.760;19.604;2023-03-08T01:28:52;98964.03;;;6.99;92.55
28628;BME280;15815;46.760;19.604;2023-03-08T01:31:22;98973.19;;;7.03;92.15
28628;BME280;15815;46.760;19.604;2023-03-08T01:33:48;98981.06;;;7.11;92.30
28628;BME280;15815;46.760;19.604;2023-03-08T01:36:17;98994.56;;;7.24;92.42
28628;BME280;15815;46.760;19.604;2023-03-08T01:38:44;98958.00;;;7.04;91.88
28628;BME280;15815;46.760;19.604;2023-03-08T01:41:19;98956.38;;;7.06;91.82
28628;BME280;15815;46.760;19.604;2023-03-08T01:43:47;98962.75;;;7.07;91.50
28628;BME280;15815;46.760;19.604;2023-03-08T01:46:28;98994.84;;;7.33;91.16
28628;BME280;15815;46.760;19.604;2023-03-08T01:51:37;98973.91;;;7.14;90.68
28628;BME280;15815;46.760;19.604;2023-03-08T01:54:11;98975.81;;;7.21;90.93
28628;BME280;15815;46.760;19.604;2023-03-08T01:56:41;98979.81;;;7.20;90.78
28628;BME280;15815;46.760;19.604;2023-03-08T01:59:09;98975.47;;;7.15;90.53
28628;BME280;15815;46.760;19.604;2023-03-08T02:01:35;98988.22;;;7.20;90.10
28628;BME280;15815;46.760;19.604;2023-03-08T02:04:01;98978.69;;;7.13;90.71
28628;BME280;15815;46.760;19.604;2023-03-08T02:06:29;98991.72;;;7.27;89.92
28628;BME280;15815;46.760;19.604;2023-03-08T02:08:58;98988.16;;;7.23;89.88
28628;BME280;15815;46.760;19.604;2023-03-08T02:11:24;98980.19;;;7.22;89.32
28628;BME280;15815;46.760;19.604;2023-03-08T02:13:54;98968.72;;;7.12;89.18
28628;BME280;15815;46.760;19.604;2023-03-08T02:16:21;98984.16;;;7.24;89.29
28628;BME280;15815;46.760;19.604;2023-03-08T02:18:56;99001.97;;;7.37;88.94
28628;BME280;15815;46.760;19.604;2023-03-08T02:21:25;98979.38;;;7.25;88.12
28628;BME280;15815;46.760;19.604;2023-03-08T02:23:55;98979.78;;;7.23;87.70
28628;BME280;15815;46.760;19.604;2023-03-08T02:26:26;98971.84;;;7.18;87.04
28628;BME280;15815;46.760;19.604;2023-03-08T02:28:53;98985.72;;;7.29;86.27
28628;BME280;15815;46.760;19.604;2023-03-08T02:31:18;98979.44;;;7.18;86.09
28628;BME280;15815;46.760;19.604;2023-03-08T02:33:46;99016.75;;;7.41;86.20
28628;BME280;15815;46.760;19.604;2023-03-08T02:36:12;98995.69;;;7.30;86.48
28628;BME280;15815;46.760;19.604;2023-03-08T02:38:38;98986.53;;;7.26;85.40
28628;BME280;15815;46.760;19.604;2023-03-08T02:41:04;99023.88;;;7.46;85.62
28628;BME280;15815;46.760;19.604;2023-03-08T02:43:31;99006.78;;;7.37;85.02
28628;BME280;15815;46.760;19.604;2023-03-08T02:46:04;99007.22;;;7.32;84.92
28628;BME280;15815;46.760;19.604;2023-03-08T02:48:35;99032.66;;;7.48;85.41
28628;BME280;15815;46.760;19.604;2023-03-08T02:51:00;99001.28;;;7.30;84.69
28628;BME280;15815;46.760;19.604;2023-03-08T02:53:26;99002.03;;;7.34;84.23
28628;BME280;15815;46.760;19.604;2023-03-08T02:55:52;99012.75;;;7.42;84.14
28628;BME280;15815;46.760;19.604;2023-03-08T02:58:18;99021.84;;;7.50;84.51
28628;BME280;15815;46.760;19.604;2023-03-08T03:00:43;99021.78;;;7.54;85.36
28628;BME280;15815;46.760;19.604;2023-03-08T03:03:09;99033.78;;;7.54;84.66
28628;BME280;15815;46.760;19.604;2023-03-08T03:05:40;99050.81;;;7.67;84.37
28628;BME280;15815;46.760;19.604;2023-03-08T03:08:06;99057.22;;;7.67;84.42
28628;BME280;15815;46.760;19.604;2023-03-08T03:10:34;99027.44;;;7.50;84.07
28628;BME280;15815;46.760;19.604;2023-03-08T03:13:04;99042.47;;;7.63;84.40
28628;BME280;15815;46.760;19.604;2023-03-08T03:15:36;99048.88;;;7.60;83.74
28628;BME280;15815;46.760;19.604;2023-03-08T03:18:02;99045.63;;;7.65;84.41
28628;BME280;15815;46.760;19.604;2023-03-08T03:20:28;99059.63;;;7.65;84.62
28628;BME280;15815;46.760;19.604;2023-03-08T03:22:54;99081.09;;;7.75;84.61
28628;BME280;15815;46.760;19.604;2023-03-08T03:25:19;99050.97;;;7.53;84.52
28628;BME280;15815;46.760;19.604;2023-03-08T03:27:45;99070.38;;;7.67;84.67
28628;BME280;15815;46.760;19.604;2023-03-08T03:30:11;99075.22;;;7.63;84.92
28628;BME280;15815;46.760;19.604;2023-03-08T03:32:36;99088.00;;;7.64;85.37
28628;BME280;15815;46.760;19.604;2023-03-08T03:35:03;99082.44;;;7.60;85.72
28628;BME280;15815;46.760;19.604;2023-03-08T03:37:29;99105.94;;;7.66;85.67
28628;BME280;15815;46.760;19.604;2023-03-08T03:39:54;99090.16;;;7.49;85.66
28628;BME280;15815;46.760;19.604;2023-03-08T03:42:22;99105.59;;;7.61;85.61
28628;BME280;15815;46.760;19.604;2023-03-08T03:44:48;99110.44;;;7.57;85.97
28628;BME280;15815;46.760;19.604;2023-03-08T03:47:13;99114.78;;;7.61;86.29
28628;BME280;15815;46.760;19.604;2023-03-08T03:49:39;99109.66;;;7.56;86.50
28628;BME280;15815;46.760;19.604;2023-03-08T03:52:04;99115.63;;;7.58;86.61
28628;BME280;15815;46.760;19.604;2023-03-08T03:54:30;99116.84;;;7.54;87.12
28628;BME280;15815;46.760;19.604;2023-03-08T03:56:58;99135.63;;;7.53;86.92
28628;BME280;15815;46.760;19.604;2023-03-08T03:59:24;99137.22;;;7.54;87.05
28628;BME280;15815;46.760;19.604;2023-03-08T04:01:50;99138.81;;;7.55;87.42
28628;BME280;15815;46.760;19.604;2023-03-08T04:04:18;99152.06;;;7.48;87.47
28628;BME280;15815;46.760;19.604;2023-03-08T04:06:44;99138.16;;;7.37;87.79
28628;BME280;15815;46.760;19.604;2023-03-08T04:09:14;99158.03;;;7.50;88.05
28628;BME280;15815;46.760;19.604;2023-03-08T04:11:44;99155.72;;;7.41;87.78
28628;BME280;15815;46.760;19.604;2023-03-08T04:17:00;99143.34;;;7.42;88.32
28628;BME280;15815;46.760;19.604;2023-03-08T04:19:25;99120.69;;;7.26;88.27
28628;BME280;15815;46.760;19.604;2023-03-08T04:21:53;99092.84;;;7.15;88.26
28628;BME280;15815;46.760;19.604;2023-03-08T04:24:19;99096.06;;;7.06;88.58
28628;BME280;15815;46.760;19.604;2023-03-08T04:26:44;99111.22;;;7.12;88.75
28628;BME280;15815;46.760;19.604;2023-03-08T04:29:10;99137.88;;;7.24;88.42
28628;BME280;15815;46.760;19.604;2023-03-08T04:31:37;99124.78;;;7.10;88.18
28628;BME280;15815;46.760;19.604;2023-03-08T04:34:03;99147.13;;;7.10;87.97
28628;BME280;15815;46.760;19.604;2023-03-08T04:36:29;99158.78;;;6.98;89.03
28628;BME280;15815;46.760;19.604;2023-03-08T04:38:56;99159.16;;;7.04;88.56
28628;BME280;15815;46.760;19.604;2023-03-08T04:41:22;99154.41;;;6.97;88.35
28628;BME280;15815;46.760;19.604;2023-03-08T04:43:58;99164.81;;;6.93;88.35
28628;BME280;15815;46.760;19.604;2023-03-08T04:46:26;99184.38;;;6.93;88.45
28628;BME280;15815;46.760;19.604;2023-03-08T04:48:55;99198.38;;;6.82;89.71
28628;BME280;15815;46.760;19.604;2023-03-08T04:51:22;99184.81;;;6.88;89.53
28628;BME280;15815;46.760;19.604;2023-03-08T04:53:49;99188.78;;;6.83;89.73
28628;BME280;15815;46.760;19.604;2023-03-08T04:56:15;99195.94;;;6.92;89.70
28628;BME280;15815;46.760;19.604;2023-03-08T04:58:43;99205.50;;;6.94;90.13
28628;BME280;15815;46.760;19.604;2023-03-08T05:01:11;99209.09;;;6.98;90.05
28628;BME280;15815;46.760;19.604;2023-03-08T05:03:37;99190.00;;;6.86;89.95
28628;BME280;15815;46.760;19.604;2023-03-08T05:06:05;99181.63;;;6.82;89.90
28628;BME280;15815;46.760;19.604;2023-03-08T05:08:31;99174.03;;;6.83;89.25
28628;BME280;15815;46.760;19.604;2023-03-08T05:11:00;99169.25;;;6.87;89.41
28628;BME280;15815;46.760;19.604;2023-03-08T05:13:28;99183.56;;;6.96;88.69
28628;BME280;15815;46.760;19.604;2023-03-08T05:15:54;99175.22;;;6.89;88.53
28628;BME280;15815;46.760;19.604;2023-03-08T05:18:20;99183.16;;;6.94;88.44
28628;BME280;15815;46.760;19.604;2023-03-08T05:20:56;99165.66;;;6.87;88.44
28628;BME280;15815;46.760;19.604;2023-03-08T05:23:24;99176.78;;;6.94;88.57
28628;BME280;15815;46.760;19.604;2023-03-08T05:26:10;99179.94;;;6.99;88.44
28628;BME280;15815;46.760;19.604;2023-03-08T05:28:37;99154.47;;;6.87;88.52
28628;BME280;15815;46.760;19.604;2023-03-08T05:31:21;99195.06;;;7.05;88.30
28628;BME280;15815;46.760;19.604;2023-03-08T05:33:49;99201.84;;;7.04;88.35
28628;BME280;15815;46.760;19.604;2023-03-08T05:36:15;99224.16;;;7.11;88.76
28628;BME280;15815;46.760;19.604;2023-03-08T05:38:42;99217.41;;;7.12;88.41
28628;BME280;15815;46.760;19.604;2023-03-08T05:41:13;99216.22;;;7.03;88.55
28628;BME280;15815;46.760;19.604;2023-03-08T05:43:39;99230.16;;;7.10;88.55
28628;BME280;15815;46.760;19.604;2023-03-08T05:46:09;99223.44;;;7.00;88.79
28628;BME280;15815;46.760;19.604;2023-03-08T05:48:35;99233.75;;;7.10;88.65
28628;BME280;15815;46.760;19.604;2023-03-08T05:51:05;99209.91;;;6.95;88.22
28628;BME280;15815;46.760;19.604;2023-03-08T05:53:32;99206.25;;;7.02;88.31
28628;BME280;15815;46.760;19.604;2023-03-08T05:56:15;99221.38;;;7.08;88.29
28628;BME280;15815;46.760;19.604;2023-03-08T05:58:42;99251.66;;;7.24;87.97
28628;BME280;15815;46.760;19.604;2023-03-08T06:01:15;99266.81;;;7.26;88.36
28628;BME280;15815;46.760;19.604;2023-03-08T06:03:45;99254.88;;;7.19;88.03
28628;BME280;15815;46.760;19.604;2023-03-08T06:06:12;99246.13;;;7.09;88.23
28628;BME280;15815;46.760;19.604;2023-03-08T06:08:39;99244.94;;;7.10;88.23
28628;BME280;15815;46.760;19.604;2023-03-08T06:11:05;99251.72;;;7.09;88.11
28628;BME280;15815;46.760;19.604;2023-03-08T06:13:30;99277.22;;;7.22;88.52
28628;BME280;15815;46.760;19.604;2023-03-08T06:15:57;99288.00;;;7.24;88.57
28628;BME280;15815;46.760;19.604;2023-03-08T06:18:26;99300.31;;;7.33;88.55
28628;BME280;15815;46.760;19.604;2023-03-08T06:21:03;99280.03;;;7.19;88.51
28628;BME280;15815;46.760;19.604;2023-03-08T06:23:30;99277.25;;;7.19;88.45
28628;BME280;15815;46.760;19.604;2023-03-08T06:25:57;99270.06;;;7.10;88.25
28628;BME280;15815;46.760;19.604;2023-03-08T06:28:29;99297.16;;;7.24;88.38
28628;BME280;15815;46.760;19.604;2023-03-08T06:30:56;99296.75;;;7.26;88.37
28628;BME280;15815;46.760;19.604;2023-03-08T06:33:27;99292.81;;;7.20;88.72
28628;BME280;15815;46.760;19.604;2023-03-08T06:36:04;99324.25;;;7.41;88.38
28628;BME280;15815;46.760;19.604;2023-03-08T06:38:32;99313.50;;;7.29;88.10
28628;BME280;15815;46.760;19.604;2023-03-08T06:41:00;99319.44;;;7.38;88.32
28628;BME280;15815;46.760;19.604;2023-03-08T06:43:27;99321.03;;;7.43;87.65
28628;BME280;15815;46.760;19.604;2023-03-08T06:45:53;99319.44;;;7.46;88.09
28628;BME280;15815;46.760;19.604;2023-03-08T06:48:19;99344.88;;;7.62;87.99
28628;BME280;15815;46.760;19.604;2023-03-08T06:50:45;99302.56;;;7.56;87.06
28628;BME280;15815;46.760;19.604;2023-03-08T06:53:12;99312.78;;;7.84;86.52
28628;BME280;15815;46.760;19.604;2023-03-08T06:55:39;99325.41;;;8.06;86.85
28628;BME280;15815;46.760;19.604;2023-03-08T06:58:06;99315.00;;;8.11;86.65
28628;BME280;15815;46.760;19.604;2023-03-08T07:00:32;99312.63;;;8.05;87.06
28628;BME280;15815;46.760;19.604;2023-03-08T07:02:57;99332.91;;;8.17;87.11
28628;BME280;15815;46.760;19.604;2023-03-08T07:05:24;99371.66;;;8.25;87.29
28628;BME280;15815;46.760;19.604;2023-03-08T07:07:51;99378.03;;;8.29;86.93
28628;BME280;15815;46.760;19.604;2023-03-08T07:10:18;99385.63;;;8.29;87.41
28628;BME280;15815;46.760;19.604;2023-03-08T07:12:48;99362.94;;;8.13;86.08
28628;BME280;15815;46.760;19.604;2023-03-08T07:15:15;99358.50;;;8.19;86.46
28628;BME280;15815;46.760;19.604;2023-03-08T07:17:42;99364.47;;;8.24;86.12
28628;BME280;15815;46.760;19.604;2023-03-08T07:20:09;99387.59;;;8.35;86.62
28628;BME280;15815;46.760;19.604;2023-03-08T07:22:35;99378.81;;;8.30;85.72
28628;BME280;15815;46.760;19.604;2023-03-08T07:25:00;99360.44;;;8.29;86.45
28628;BME280;15815;46.760;19.604;2023-03-08T07:27:26;99374.00;;;8.34;85.53
28628;BME280;15815;46.760;19.604;2023-03-08T07:29:52;99355.97;;;8.39;86.17
28628;BME280;15815;46.760;19.604;2023-03-08T07:32:17;99354.59;;;8.61;85.80
28628;BME280;15815;46.760;19.604;2023-03-08T07:34:46;99365.97;;;8.84;84.65
28628;BME280;15815;46.760;19.604;2023-03-08T07:37:13;99381.09;;;8.90;84.78
28628;BME280;15815;46.760;19.604;2023-03-08T07:39:39;99373.84;;;8.96;85.62
28628;BME280;15815;46.760;19.604;2023-03-08T07:42:05;99375.78;;;8.99;85.35
28628;BME280;15815;46.760;19.604;2023-03-08T07:44:30;99389.38;;;9.01;83.54
28628;BME280;15815;46.760;19.604;2023-03-08T07:46:56;99368.25;;;8.93;84.95
28628;BME280;15815;46.760;19.604;2023-03-08T07:49:21;99398.09;;;9.14;82.58
28628;BME280;15815;46.760;19.604;2023-03-08T07:51:50;99371.56;;;9.22;83.80
28628;BME280;15815;46.760;19.604;2023-03-08T07:54:16;99371.88;;;9.27;83.03
28628;BME280;15815;46.760;19.604;2023-03-08T07:56:41;99405.22;;;9.52;82.37
28628;BME280;15815;46.760;19.604;2023-03-08T07:59:07;99386.44;;;9.49;82.53
28628;BME280;15815;46.760;19.604;2023-03-08T08:01:32;99384.69;;;9.63;81.83
28628;BME280;15815;46.760;19.604;2023-03-08T08:03:59;99372.63;;;9.66;80.65
28628;BME280;15815;46.760;19.604;2023-03-08T08:06:26;99407.88;;;9.97;80.32
28628;BME280;15815;46.760;19.604;2023-03-08T08:08:51;99419.00;;;10.04;79.84
28628;BME280;15815;46.760;19.604;2023-03-08T08:11:20;99417.72;;;10.09;77.82
28628;BME280;15815;46.760;19.604;2023-03-08T08:13:46;99389.25;;;9.80;77.05
28628;BME280;15815;46.760;19.604;2023-03-08T08:16:13;99416.19;;;10.04;75.85
28628;BME280;15815;46.760;19.604;2023-03-08T08:18:40;99405.91;;;9.94;70.76
28628;BME280;15815;46.760;19.604;2023-03-08T08:21:16;99393.03;;;9.97;71.69
28628;BME280;15815;46.760;19.604;2023-03-08T08:23:42;99392.44;;;10.09;70.42
28628;BME280;15815;46.760;19.604;2023-03-08T08:26:10;99378.03;;;10.07;70.56
28628;BME280;15815;46.760;19.604;2023-03-08T08:28:41;99411.09;;;10.26;70.35
28628;BME280;15815;46.760;19.604;2023-03-08T08:31:09;99407.84;;;10.28;69.54
28628;BME280;15815;46.760;19.604;2023-03-08T08:33:36;99406.75;;;10.21;67.52
28628;BME280;15815;46.760;19.604;2023-03-08T08:36:05;99414.56;;;10.34;68.23
28628;BME280;15815;46.760;19.604;2023-03-08T08:38:31;99412.25;;;10.29;65.21
28628;BME280;15815;46.760;19.604;2023-03-08T08:41:01;99409.00;;;10.30;66.65
28628;BME280;15815;46.760;19.604;2023-03-08T08:43:28;99407.13;;;10.24;67.26
28628;BME280;15815;46.760;19.604;2023-03-08T08:45:56;99420.47;;;10.43;68.45
28628;BME280;15815;46.760;19.604;2023-03-08T08:48:22;99412.50;;;10.38;67.07
28628;BME280;15815;46.760;19.604;2023-03-08T08:50:48;99421.41;;;10.33;66.74
28628;BME280;15815;46.760;19.604;2023-03-08T08:53:15;99426.50;;;10.41;65.89
28628;BME280;15815;46.760;19.604;2023-03-08T08:55:40;99441.13;;;10.56;66.42
28628;BME280;15815;46.760;19.604;2023-03-08T08:58:06;99409.81;;;10.31;65.52
28628;BME280;15815;46.760;19.604;2023-03-08T09:00:32;99414.09;;;10.39;65.63
28628;BME280;15815;46.760;19.604;2023-03-08T09:02:59;99412.16;;;10.59;65.77
28628;BME280;15815;46.760;19.604;2023-03-08T09:05:25;99409.25;;;10.39;64.28
28628;BME280;15815;46.760;19.604;2023-03-08T09:07:54;99436.59;;;10.62;64.20
28628;BME280;15815;46.760;19.604;2023-03-08T09:10:20;99428.31;;;10.78;65.73
28628;BME280;15815;46.760;19.604;2023-03-08T09:12:46;99419.81;;;10.82;61.23
28628;BME280;15815;46.760;19.604;2023-03-08T09:15:13;99428.41;;;10.95;62.08
28628;BME280;15815;46.760;19.604;2023-03-08T09:17:38;99429.59;;;10.97;63.57
28628;BME280;15815;46.760;19.604;2023-03-08T09:20:05;99432.44;;;10.94;60.49
28628;BME280;15815;46.760;19.604;2023-03-08T09:22:31;99415.09;;;10.99;61.80
28628;BME280;15815;46.760;19.604;2023-03-08T09:24:57;99418.66;;;11.03;57.21
28628;BME280;15815;46.760;19.604;2023-03-08T09:27:22;99412.72;;;10.97;57.90
28628;BME280;15815;46.760;19.604;2023-03-08T09:29:48;99408.63;;;11.02;57.98
28628;BME280;15815;46.760;19.604;2023-03-08T09:32:14;99402.28;;;10.98;57.82
28628;BME280;15815;46.760;19.604;2023-03-08T09:34:39;99390.47;;;11.06;57.88
28628;BME280;15815;46.760;19.604;2023-03-08T09:37:05;99392.19;;;11.20;57.43
28628;BME280;15815;46.760;19.604;2023-03-08T09:39:30;99410.47;;;11.32;56.70
28628;BME280;15815;46.760;19.604;2023-03-08T09:41:58;99416.59;;;11.27;55.40
28628;BME280;15815;46.760;19.604;2023-03-08T09:49:49;99411.63;;;11.34;54.45
28628;BME280;15815;46.760;19.604;2023-03-08T09:55:00;99397.84;;;11.60;53.71
28628;BME280;15815;46.760;19.604;2023-03-08T09:57:43;99420.41;;;11.76;50.14
28628;BME280;15815;46.760;19.604;2023-03-08T10:00:18;99406.78;;;11.94;54.84
28628;BME280;15815;46.760;19.604;2023-03-08T10:08:11;99397.94;;;12.28;54.33
28628;BME280;15815;46.760;19.604;2023-03-08T10:11:04;99369.00;;;12.12;48.48
28628;BME280;15815;46.760;19.604;2023-03-08T10:13:40;99382.03;;;12.54;52.04
28628;BME280;15815;46.760;19.604;2023-03-08T10:16:20;99385.34;;;12.98;50.46
28628;BME280;15815;46.760;19.604;2023-03-08T10:21:19;99382.69;;;14.58;49.44
28628;BME280;15815;46.760;19.604;2023-03-08T10:23:48;99365.53;;;15.21;49.56
28628;BME280;15815;46.760;19.604;2023-03-08T10:26:16;99372.59;;;15.04;53.34
28628;BME280;15815;46.760;19.604;2023-03-08T10:28:41;99371.94;;;16.09;49.85
28628;BME280;15815;46.760;19.604;2023-03-08T10:31:31;99352.84;;;16.72;46.85
28628;BME280;15815;46.760;19.604;2023-03-08T10:34:19;99373.28;;;16.17;45.13
28628;BME280;15815;46.760;19.604;2023-03-08T10:37:05;99380.19;;;16.56;39.51
28628;BME280;15815;46.760;19.604;2023-03-08T10:39:31;99367.38;;;17.10;38.59
28628;BME280;15815;46.760;19.604;2023-03-08T10:41:58;99364.38;;;17.23;37.35
28628;BME280;15815;46.760;19.604;2023-03-08T10:44:37;99341.78;;;18.26;36.04
28628;BME280;15815;46.760;19.604;2023-03-08T10:47:16;99348.91;;;18.63;35.52
28628;BME280;15815;46.760;19.604;2023-03-08T10:49:42;99333.69;;;18.66;36.61
28628;BME280;15815;46.760;19.604;2023-03-08T10:52:22;99319.88;;;18.98;34.22
28628;BME280;15815;46.760;19.604;2023-03-08T10:57:28;99331.94;;;18.69;33.73
28628;BME280;15815;46.760;19.604;2023-03-08T11:00:00;99319.91;;;18.41;33.21
28628;BME280;15815;46.760;19.604;2023-03-08T11:02:26;99348.84;;;18.72;33.60
28628;BME280;15815;46.760;19.604;2023-03-08T11:04:58;99335.69;;;18.99;32.63
28628;BME280;15815;46.760;19.604;2023-03-08T11:07:28;99323.25;;;19.11;32.45
28628;BME280;15815;46.760;19.604;2023-03-08T11:12:38;99323.59;;;18.56;31.19
28628;BME280;15815;46.760;19.604;2023-03-08T11:15:18;99333.03;;;18.95;30.91
28628;BME280;15815;46.760;19.604;2023-03-08T11:20:42;99318.03;;;19.63;30.68
28628;BME280;15815;46.760;19.604;2023-03-08T11:23:23;99316.69;;;19.73;30.14
28628;BME280;15815;46.760;19.604;2023-03-08T11:26:10;99331.59;;;19.68;30.35
28628;BME280;15815;46.760;19.604;2023-03-08T11:31:25;99306.28;;;20.20;29.92
28628;BME280;15815;46.760;19.604;2023-03-08T11:39:27;99314.69;;;19.94;30.08
28628;BME280;15815;46.760;19.604;2023-03-08T11:55:16;99302.84;;;17.20;32.69
28628;BME280;15815;46.760;19.604;2023-03-08T11:57:54;99297.19;;;17.29;33.76
28628;BME280;15815;46.760;19.604;2023-03-08T12:00:33;99277.19;;;17.05;33.36
28628;BME280;15815;46.760;19.604;2023-03-08T12:03:07;99291.19;;;17.18;33.71
28628;BME280;15815;46.760;19.604;2023-03-08T12:05:50;99269.56;;;17.20;34.20
28628;BME280;15815;46.760;19.604;2023-03-08T12:08:34;99267.66;;;16.62;36.09
28628;BME280;15815;46.760;19.604;2023-03-08T12:11:15;99282.22;;;17.01;36.53
28628;BME280;15815;46.760;19.604;2023-03-08T12:14:09;99268.50;;;16.99;37.33
28628;BME280;15815;46.760;19.604;2023-03-08T12:19:49;99276.69;;;16.88;37.27
28628;BME280;15815;46.760;19.604;2023-03-08T12:27:48;99269.09;;;16.67;36.70
28628;BME280;15815;46.760;19.604;2023-03-08T12:33:19;99242.47;;;16.92;37.90
28628;BME280;15815;46.760;19.604;2023-03-08T12:36:03;99225.28;;;16.68;37.31
28628;BME280;15815;46.760;19.604;2023-03-08T12:38:31;99263.75;;;16.69;37.75
28628;BME280;15815;46.760;19.604;2023-03-08T12:40:59;99236.31;;;16.48;37.92
28628;BME280;15815;46.760;19.604;2023-03-08T12:46:03;99234.22;;;16.21;39.98
28628;BME280;15815;46.760;19.604;2023-03-08T12:48:36;99236.03;;;16.05;40.08
28628;BME280;15815;46.760;19.604;2023-03-08T12:58:51;99223.03;;;15.68;41.32
28628;BME280;15815;46.760;19.604;2023-03-08T13:01:44;99229.28;;;15.63;41.40
28628;BME280;15815;46.760;19.604;2023-03-08T13:04:34;99200.03;;;15.66;43.01
28628;BME280;15815;46.760;19.604;2023-03-08T13:12:49;99217.72;;;15.88;43.38
28628;BME280;15815;46.760;19.604;2023-03-08T13:15:24;99211.78;;;16.04;43.52
28628;BME280;15815;46.760;19.604;2023-03-08T13:17:58;99204.75;;;16.18;43.90
28628;BME280;15815;46.760;19.604;2023-03-08T13:28:22;99175.75;;;16.14;44.67
28628;BME280;15815;46.760;19.604;2023-03-08T13:30:56;99169.91;;;15.90;46.15
28628;BME280;15815;46.760;19.604;2023-03-08T13:33:32;99189.59;;;15.94;45.78
28628;BME280;15815;46.760;19.604;2023-03-08T13:36:04;99176.28;;;15.63;46.08
28628;BME280;15815;46.760;19.604;2023-03-08T13:38:34;99174.72;;;15.81;46.61
28628;BME280;15815;46.760;19.604;2023-03-08T13:41:00;99170.78;;;15.78;46.42
28628;BME280;15815;46.760;19.604;2023-03-08T13:43:28;99152.09;;;15.40;47.07
28628;BME280;15815;46.760;19.604;2023-03-08T13:45:57;99140.53;;;15.26;46.56
28628;BME280;15815;46.760;19.604;2023-03-08T13:48:26;99126.34;;;15.17;47.09
28628;BME280;15815;46.760;19.604;2023-03-08T13:50:52;99142.28;;;15.32;47.94
28628;BME280;15815;46.760;19.604;2023-03-08T13:53:23;99137.13;;;15.40;48.34
28628;BME280;15815;46.760;19.604;2023-03-08T13:55:50;99134.31;;;15.40;48.42
28628;BME280;15815;46.760;19.604;2023-03-08T14:00:45;99103.66;;;15.48;48.30
28628;BME280;15815;46.760;19.604;2023-03-08T14:03:18;99082.03;;;15.32;48.06
28628;BME280;15815;46.760;19.604;2023-03-08T14:05:44;99103.78;;;15.35;48.26
28628;BME280;15815;46.760;19.604;2023-03-08T14:08:20;99096.59;;;15.52;47.70
28628;BME280;15815;46.760;19.604;2023-03-08T14:13:30;99082.03;;;15.32;48.55
28628;BME280;15815;46.760;19.604;2023-03-08T14:16:01;99081.91;;;14.95;49.54
28628;BME280;15815;46.760;19.604;2023-03-08T14:18:30;99104.03;;;15.28;48.74
28628;BME280;15815;46.760;19.604;2023-03-08T14:21:02;99103.19;;;15.49;49.24
28628;BME280;15815;46.760;19.604;2023-03-08T14:23:28;99085.88;;;15.47;49.04
28628;BME280;15815;46.760;19.604;2023-03-08T14:25:58;99073.59;;;15.41;49.08
28628;BME280;15815;46.760;19.604;2023-03-08T14:28:40;99093.19;;;15.26;49.24
28628;BME280;15815;46.760;19.604;2023-03-08T14:31:26;99081.94;;;15.04;49.89
28628;BME280;15815;46.760;19.604;2023-03-08T14:34:00;99064.81;;;14.77;49.99
28628;BME280;15815;46.760;19.604;2023-03-08T14:36:29;99069.59;;;14.80;50.79